sensor_id;sensor_type;location;lat;lon;timestamp;P1;durP1;ratioP1;P2;durP2;ratioP2
1446;SDS011;717;51.522;7.266;2023-03-09T00:01:32;11.77;;;9.50;;
1446;SDS011;717;51.522;7.266;2023-03-09T00:04:01;11.97;;;8.57;;
1446;SDS011;717;51.522;7.266;2023-03-09T00:06:30;10.57;;;8.47;;
1446;SDS011;717;51.522;7.266;2023-03-09T00:08:59;11.67;;;8.57;;
1446;SDS011;717;51.522;7.266;2023-03-09T00:11:31;10.97;;;8.23;;
1446;SDS011;717;51.522;7.266;2023-03-09T00:14:00;12.30;;;8.77;;
1446;SDS011;717;51.522;7.266;2023-03-09T00:16:29;10.43;;;7.90;;
1446;SDS011;717;51.522;7.266;2023-03-09T00:18:58;11.57;;;8.33;;
1446;SDS011;717;51.522;7.266;2023-03-09T00:21:27;10.43;;;7.93;;
1446;SDS011;717;51.522;7.266;2023-03-09T00:24:03;11.30;;;8.03;;
1446;SDS011;717;51.522;7.266;2023-03-09T00:26:37;12.97;;;9.10;;
1446;SDS011;717;51.522;7.266;2023-03-09T00:29:08;10.70;;;8.23;;
1446;SDS011;717;51.522;7.266;2023-03-09T00:31:38;12.53;;;8.57;;
1446;SDS011;717;51.522;7.266;2023-03-09T00:34:08;14.43;;;10.43;;
1446;SDS011;717;51.522;7.266;2023-03-09T00:36:37;12.23;;;9.00;;
1446;SDS011;717;51.522;7.266;2023-03-09T00:39:06;15.07;;;9.47;;
1446;SDS011;717;51.522;7.266;2023-03-09T00:41:37;12.73;;;9.40;;
1446;SDS011;717;51.522;7.266;2023-03-09T00:44:06;13.70;;;10.00;;
1446;SDS011;717;51.522;7.266;2023-03-09T00:46:35;13.13;;;9.70;;
1446;SDS011;717;51.522;7.266;2023-03-09T00:49:03;14.53;;;10.00;;
1446;SDS011;717;51.522;7.266;2023-03-09T00:51:33;14.60;;;10.27;;
1446;SDS011;717;51.522;7.266;2023-03-09T00:54:03;12.53;;;9.17;;
1446;SDS011;717;51.522;7.266;2023-03-09T00:56:32;14.27;;;10.13;;
1446;SDS011;717;51.522;7.266;2023-03-09T00:59:03;15.90;;;10.60;;
1446;SDS011;717;51.522;7.266;2023-03-09T01:01:32;16.60;;;11.77;;
1446;SDS011;717;51.522;7.266;2023-03-09T01:04:01;17.37;;;12.33;;
1446;SDS011;717;51.522;7.266;2023-03-09T01:06:30;17.10;;;12.93;;
1446;SDS011;717;51.522;7.266;2023-03-09T01:08:58;15.77;;;11.70;;
1446;SDS011;717;51.522;7.266;2023-03-09T01:11:27;18.20;;;12.10;;
1446;SDS011;717;51.522;7.266;2023-03-09T01:13:56;18.77;;;13.10;;
1446;SDS011;717;51.522;7.266;2023-03-09T01:16:27;19.90;;;13.67;;
1446;SDS011;717;51.522;7.266;2023-03-09T01:18:56;20.07;;;13.87;;
1446;SDS011;717;51.522;7.266;2023-03-09T01:21:24;21.47;;;14.27;;
1446;SDS011;717;51.522;7.266;2023-03-09T01:23:53;22.63;;;14.70;;
1446;SDS011;717;51.522;7.266;2023-03-09T01:26:22;24.20;;;15.27;;
1446;SDS011;717;51.522;7.266;2023-03-09T01:28:50;23.93;;;15.10;;
1446;SDS011;717;51.522;7.266;2023-03-09T01:31:19;21.70;;;14.83;;
1446;SDS011;717;51.522;7.266;2023-03-09T01:33:50;21.37;;;14.20;;
1446;SDS011;717;51.522;7.266;2023-03-09T01:36:19;19.80;;;13.27;;
1446;SDS011;717;51.522;7.266;2023-03-09T01:38:48;19.43;;;14.20;;
1446;SDS011;717;51.522;7.266;2023-03-09T01:41:17;20.23;;;13.60;;
1446;SDS011;717;51.522;7.266;2023-03-09T01:43:48;17.83;;;13.23;;
1446;SDS011;717;51.522;7.266;2023-03-09T01:49:18;16.00;;;11.83;;
1446;SDS011;717;51.522;7.266;2023-03-09T01:52:06;15.43;;;11.53;;
1446;SDS011;717;51.522;7.266;2023-03-09T01:54:41;16.10;;;11.77;;
1446;SDS011;717;51.522;7.266;2023-03-09T01:57:15;15.83;;;10.70;;
1446;SDS011;717;51.522;7.266;2023-03-09T01:59:50;15.90;;;11.80;;
1446;SDS011;717;51.522;7.266;2023-03-09T02:02:21;15.10;;;11.13;;
1446;SDS011;717;51.522;7.266;2023-03-09T02:04:56;15.13;;;11.27;;
1446;SDS011;717;51.522;7.266;2023-03-09T02:07:28;15.57;;;11.10;;
1446;SDS011;717;51.522;7.266;2023-03-09T02:10:00;15.30;;;11.03;;
1446;SDS011;717;51.522;7.266;2023-03-09T02:12:32;15.00;;;11.37;;
1446;SDS011;717;51.522;7.266;2023-03-09T02:15:03;13.17;;;11.30;;
1446;SDS011;717;51.522;7.266;2023-03-09T02:17:32;16.37;;;11.20;;
1446;SDS011;717;51.522;7.266;2023-03-09T02:20:06;16.33;;;11.53;;
1446;SDS011;717;51.522;7.266;2023-03-09T02:22:41;14.50;;;10.97;;
1446;SDS011;717;51.522;7.266;2023-03-09T02:25:14;14.90;;;10.50;;
1446;SDS011;717;51.522;7.266;2023-03-09T02:27:52;16.10;;;11.73;;
1446;SDS011;717;51.522;7.266;2023-03-09T02:30:21;17.33;;;11.87;;
1446;SDS011;717;51.522;7.266;2023-03-09T02:33:00;18.70;;;12.83;;
1446;SDS011;717;51.522;7.266;2023-03-09T02:35:31;16.57;;;11.47;;
1446;SDS011;717;51.522;7.266;2023-03-09T02:37:59;17.77;;;12.83;;
1446;SDS011;717;51.522;7.266;2023-03-09T02:40:29;17.03;;;11.73;;
1446;SDS011;717;51.522;7.266;2023-03-09T02:43:03;18.07;;;12.97;;
1446;SDS011;717;51.522;7.266;2023-03-09T02:45:32;16.87;;;12.03;;
1446;SDS011;717;51.522;7.266;2023-03-09T02:48:01;16.03;;;11.87;;
1446;SDS011;717;51.522;7.266;2023-03-09T02:50:30;15.90;;;12.00;;
1446;SDS011;717;51.522;7.266;2023-03-09T02:52:59;16.63;;;12.67;;
1446;SDS011;717;51.522;7.266;2023-03-09T02:55:28;17.50;;;12.60;;
1446;SDS011;717;51.522;7.266;2023-03-09T02:57:57;18.27;;;12.83;;
1446;SDS011;717;51.522;7.266;2023-03-09T03:00:28;16.97;;;11.93;;
1446;SDS011;717;51.522;7.266;2023-03-09T03:02:57;17.97;;;13.27;;
1446;SDS011;717;51.522;7.266;2023-03-09T03:05:26;17.87;;;12.13;;
1446;SDS011;717;51.522;7.266;2023-03-09T03:07:54;18.67;;;13.37;;
1446;SDS011;717;51.522;7.266;2023-03-09T03:10:23;17.53;;;12.23;;
1446;SDS011;717;51.522;7.266;2023-03-09T03:12:52;19.20;;;12.77;;
1446;SDS011;717;51.522;7.266;2023-03-09T03:15:20;19.20;;;13.57;;
1446;SDS011;717;51.522;7.266;2023-03-09T03:17:52;19.80;;;13.73;;
1446;SDS011;717;51.522;7.266;2023-03-09T03:20:20;19.00;;;13.40;;
1446;SDS011;717;51.522;7.266;2023-03-09T03:22:49;17.37;;;11.97;;
1446;SDS011;717;51.522;7.266;2023-03-09T03:25:18;18.93;;;12.97;;
1446;SDS011;717;51.522;7.266;2023-03-09T03:27:47;18.70;;;13.00;;
1446;SDS011;717;51.522;7.266;2023-03-09T03:30:15;20.00;;;13.70;;
1446;SDS011;717;51.522;7.266;2023-03-09T03:32:44;20.47;;;12.77;;
1446;SDS011;717;51.522;7.266;2023-03-09T03:35:20;18.67;;;13.13;;
1446;SDS011;717;51.522;7.266;2023-03-09T03:37:49;22.90;;;15.10;;
1446;SDS011;717;51.522;7.266;2023-03-09T03:40:17;20.67;;;13.30;;
1446;SDS011;717;51.522;7.266;2023-03-09T03:42:48;21.13;;;14.17;;
1446;SDS011;717;51.522;7.266;2023-03-09T03:45:16;19.20;;;13.67;;
1446;SDS011;717;51.522;7.266;2023-03-09T03:47:46;19.83;;;13.93;;
1446;SDS011;717;51.522;7.266;2023-03-09T03:50:14;19.50;;;13.73;;
1446;SDS011;717;51.522;7.266;2023-03-09T03:52:46;22.73;;;14.17;;
1446;SDS011;717;51.522;7.266;2023-03-09T03:55:14;22.00;;;14.60;;
1446;SDS011;717;51.522;7.266;2023-03-09T03:57:43;22.67;;;14.13;;
1446;SDS011;717;51.522;7.266;2023-03-09T04:00:12;21.80;;;14.50;;
1446;SDS011;717;51.522;7.266;2023-03-09T04:02:43;21.87;;;14.30;;
1446;SDS011;717;51.522;7.266;2023-03-09T04:05:12;20.57;;;14.20;;
1446;SDS011;717;51.522;7.266;2023-03-09T04:07:40;23.30;;;14.73;;
1446;SDS011;717;51.522;7.266;2023-03-09T04:10:12;23.60;;;15.70;;
1446;SDS011;717;51.522;7.266;2023-03-09T04:12:41;21.70;;;14.40;;
1446;SDS011;717;51.522;7.266;2023-03-09T04:15:10;27.23;;;16.37;;
1446;SDS011;717;51.522;7.266;2023-03-09T04:17:38;27.07;;;17.53;;
1446;SDS011;717;51.522;7.266;2023-03-09T04:20:08;25.83;;;16.40;;
1446;SDS011;717;51.522;7.266;2023-03-09T04:22:38;23.67;;;15.10;;
1446;SDS011;717;51.522;7.266;2023-03-09T04:25:07;23.93;;;14.87;;
1446;SDS011;717;51.522;7.266;2023-03-09T04:27:38;22.30;;;15.17;;
1446;SDS011;717;51.522;7.266;2023-03-09T04:30:08;23.20;;;15.50;;
1446;SDS011;717;51.522;7.266;2023-03-09T04:32:38;24.00;;;15.80;;
1446;SDS011;717;51.522;7.266;2023-03-09T04:35:07;21.43;;;14.57;;
1446;SDS011;717;51.522;7.266;2023-03-09T04:37:37;23.23;;;15.07;;
1446;SDS011;717;51.522;7.266;2023-03-09T04:40:05;24.80;;;14.50;;
1446;SDS011;717;51.522;7.266;2023-03-09T04:42:35;21.83;;;14.47;;
1446;SDS011;717;51.522;7.266;2023-03-09T04:45:06;23.20;;;15.37;;
1446;SDS011;717;51.522;7.266;2023-03-09T04:47:36;23.97;;;14.23;;
1446;SDS011;717;51.522;7.266;2023-03-09T04:50:05;28.33;;;15.83;;
1446;SDS011;717;51.522;7.266;2023-03-09T04:52:35;24.43;;;15.43;;
1446;SDS011;717;51.522;7.266;2023-03-09T04:55:04;25.17;;;14.77;;
1446;SDS011;717;51.522;7.266;2023-03-09T04:57:33;22.93;;;15.07;;
1446;SDS011;717;51.522;7.266;2023-03-09T05:00:03;26.27;;;14.83;;
1446;SDS011;717;51.522;7.266;2023-03-09T05:02:36;26.43;;;15.10;;
1446;SDS011;717;51.522;7.266;2023-03-09T05:05:05;24.77;;;14.97;;
1446;SDS011;717;51.522;7.266;2023-03-09T05:07:34;27.73;;;16.20;;
1446;SDS011;717;51.522;7.266;2023-03-09T05:10:03;23.67;;;14.97;;
1446;SDS011;717;51.522;7.266;2023-03-09T05:12:32;26.43;;;16.30;;
1446;SDS011;717;51.522;7.266;2023-03-09T05:15:01;24.83;;;15.97;;
1446;SDS011;717;51.522;7.266;2023-03-09T05:17:33;23.57;;;15.00;;
1446;SDS011;717;51.522;7.266;2023-03-09T05:20:02;25.80;;;16.90;;
1446;SDS011;717;51.522;7.266;2023-03-09T05:22:34;25.50;;;15.37;;
1446;SDS011;717;51.522;7.266;2023-03-09T05:25:04;25.53;;;16.50;;
1446;SDS011;717;51.522;7.266;2023-03-09T05:27:33;25.63;;;16.03;;
1446;SDS011;717;51.522;7.266;2023-03-09T05:30:03;27.17;;;16.30;;
1446;SDS011;717;51.522;7.266;2023-03-09T05:32:34;25.80;;;16.30;;
1446;SDS011;717;51.522;7.266;2023-03-09T05:35:03;29.80;;;17.20;;
1446;SDS011;717;51.522;7.266;2023-03-09T05:37:33;26.83;;;15.77;;
1446;SDS011;717;51.522;7.266;2023-03-09T05:40:02;29.77;;;17.17;;
1446;SDS011;717;51.522;7.266;2023-03-09T05:42:33;28.10;;;16.27;;
1446;SDS011;717;51.522;7.266;2023-03-09T05:45:02;27.57;;;17.17;;
1446;SDS011;717;51.522;7.266;2023-03-09T05:47:31;27.30;;;15.97;;
1446;SDS011;717;51.522;7.266;2023-03-09T05:50:02;29.90;;;17.90;;
1446;SDS011;717;51.522;7.266;2023-03-09T05:52:31;26.33;;;16.93;;
1446;SDS011;717;51.522;7.266;2023-03-09T05:55:00;25.77;;;16.07;;
1446;SDS011;717;51.522;7.266;2023-03-09T05:57:29;29.90;;;16.30;;
1446;SDS011;717;51.522;7.266;2023-03-09T05:59:57;32.70;;;17.40;;
1446;SDS011;717;51.522;7.266;2023-03-09T06:02:26;28.77;;;17.30;;
1446;SDS011;717;51.522;7.266;2023-03-09T06:04:55;30.50;;;17.17;;
1446;SDS011;717;51.522;7.266;2023-03-09T06:07:26;29.50;;;17.37;;
1446;SDS011;717;51.522;7.266;2023-03-09T06:09:56;31.60;;;15.63;;
1446;SDS011;717;51.522;7.266;2023-03-09T06:12:24;29.23;;;16.60;;
1446;SDS011;717;51.522;7.266;2023-03-09T06:14:54;29.33;;;16.30;;
1446;SDS011;717;51.522;7.266;2023-03-09T06:17:22;27.97;;;16.13;;
1446;SDS011;717;51.522;7.266;2023-03-09T06:19:52;31.90;;;16.90;;
1446;SDS011;717;51.522;7.266;2023-03-09T06:22:20;28.07;;;17.03;;
1446;SDS011;717;51.522;7.266;2023-03-09T06:24:51;33.10;;;17.43;;
1446;SDS011;717;51.522;7.266;2023-03-09T06:27:20;27.73;;;16.93;;
1446;SDS011;717;51.522;7.266;2023-03-09T06:29:49;30.53;;;17.33;;
1446;SDS011;717;51.522;7.266;2023-03-09T06:32:18;30.27;;;17.20;;
1446;SDS011;717;51.522;7.266;2023-03-09T06:34:46;29.53;;;17.57;;
1446;SDS011;717;51.522;7.266;2023-03-09T06:37:15;30.37;;;18.07;;
1446;SDS011;717;51.522;7.266;2023-03-09T06:39:44;31.50;;;16.63;;
1446;SDS011;717;51.522;7.266;2023-03-09T06:42:15;32.27;;;17.27;;
1446;SDS011;717;51.522;7.266;2023-03-09T06:44:44;31.10;;;17.53;;
1446;SDS011;717;51.522;7.266;2023-03-09T06:47:14;30.13;;;16.73;;
1446;SDS011;717;51.522;7.266;2023-03-09T06:49:43;33.13;;;17.80;;
1446;SDS011;717;51.522;7.266;2023-03-09T06:52:11;34.73;;;18.10;;
1446;SDS011;717;51.522;7.266;2023-03-09T06:54:40;38.07;;;19.70;;
1446;SDS011;717;51.522;7.266;2023-03-09T06:57:09;34.57;;;17.67;;
1446;SDS011;717;51.522;7.266;2023-03-09T06:59:41;33.00;;;18.87;;
1446;SDS011;717;51.522;7.266;2023-03-09T07:02:10;35.00;;;18.20;;
1446;SDS011;717;51.522;7.266;2023-03-09T07:04:40;32.30;;;17.23;;
1446;SDS011;717;51.522;7.266;2023-03-09T07:07:10;35.47;;;18.70;;
1446;SDS011;717;51.522;7.266;2023-03-09T07:09:40;35.07;;;18.63;;
1446;SDS011;717;51.522;7.266;2023-03-09T07:12:09;36.83;;;19.70;;
1446;SDS011;717;51.522;7.266;2023-03-09T07:14:40;37.60;;;20.57;;
1446;SDS011;717;51.522;7.266;2023-03-09T07:17:11;37.93;;;18.20;;
1446;SDS011;717;51.522;7.266;2023-03-09T07:19:40;36.43;;;19.20;;
1446;SDS011;717;51.522;7.266;2023-03-09T07:22:09;36.57;;;19.43;;
1446;SDS011;717;51.522;7.266;2023-03-09T07:24:39;36.27;;;19.27;;
1446;SDS011;717;51.522;7.266;2023-03-09T07:27:07;40.93;;;20.73;;
1446;SDS011;717;51.522;7.266;2023-03-09T07:29:36;36.67;;;18.73;;
1446;SDS011;717;51.522;7.266;2023-03-09T07:32:08;42.03;;;18.67;;
1446;SDS011;717;51.522;7.266;2023-03-09T07:34:37;38.57;;;18.63;;
1446;SDS011;717;51.522;7.266;2023-03-09T07:37:06;37.00;;;19.80;;
1446;SDS011;717;51.522;7.266;2023-03-09T07:39:35;38.37;;;19.80;;
1446;SDS011;717;51.522;7.266;2023-03-09T07:42:03;40.50;;;21.50;;
1446;SDS011;717;51.522;7.266;2023-03-09T07:44:33;40.73;;;20.50;;
1446;SDS011;717;51.522;7.266;2023-03-09T07:47:02;42.83;;;20.90;;
1446;SDS011;717;51.522;7.266;2023-03-09T07:49:33;40.17;;;20.97;;
1446;SDS011;717;51.522;7.266;2023-03-09T07:52:01;40.70;;;20.63;;
1446;SDS011;717;51.522;7.266;2023-03-09T07:54:30;42.50;;;20.83;;
1446;SDS011;717;51.522;7.266;2023-03-09T07:57:00;42.97;;;20.43;;
1446;SDS011;717;51.522;7.266;2023-03-09T07:59:29;45.87;;;21.33;;
1446;SDS011;717;51.522;7.266;2023-03-09T08:01:57;45.70;;;22.27;;
1446;SDS011;717;51.522;7.266;2023-03-09T08:04:26;46.87;;;22.70;;
1446;SDS011;717;51.522;7.266;2023-03-09T08:06:58;43.77;;;21.37;;
1446;SDS011;717;51.522;7.266;2023-03-09T08:09:26;47.10;;;21.87;;
1446;SDS011;717;51.522;7.266;2023-03-09T08:11:55;38.30;;;18.90;;
1446;SDS011;717;51.522;7.266;2023-03-09T08:14:24;44.57;;;21.60;;
1446;SDS011;717;51.522;7.266;2023-03-09T08:16:53;45.70;;;20.97;;
1446;SDS011;717;51.522;7.266;2023-03-09T08:19:21;40.50;;;21.33;;
1446;SDS011;717;51.522;7.266;2023-03-09T08:21:50;45.13;;;21.97;;
1446;SDS011;717;51.522;7.266;2023-03-09T08:24:21;44.67;;;20.90;;
1446;SDS011;717;51.522;7.266;2023-03-09T08:26:50;42.97;;;20.90;;
1446;SDS011;717;51.522;7.266;2023-03-09T08:29:18;45.23;;;20.57;;
1446;SDS011;717;51.522;7.266;2023-03-09T08:31:47;38.20;;;19.27;;
1446;SDS011;717;51.522;7.266;2023-03-09T08:34:17;39.37;;;18.97;;
1446;SDS011;717;51.522;7.266;2023-03-09T08:36:45;41.17;;;21.23;;
1446;SDS011;717;51.522;7.266;2023-03-09T08:39:14;42.67;;;20.43;;
1446;SDS011;717;51.522;7.266;2023-03-09T08:41:45;46.07;;;20.90;;
1446;SDS011;717;51.522;7.266;2023-03-09T08:44:14;48.40;;;22.57;;
1446;SDS011;717;51.522;7.266;2023-03-09T08:46:43;43.40;;;22.10;;
1446;SDS011;717;51.522;7.266;2023-03-09T08:49:11;42.83;;;22.27;;
1446;SDS011;717;51.522;7.266;2023-03-09T08:51:40;46.37;;;23.27;;
1446;SDS011;717;51.522;7.266;2023-03-09T08:54:09;44.70;;;23.70;;
1446;SDS011;717;51.522;7.266;2023-03-09T08:56:38;45.73;;;23.40;;
1446;SDS011;717;51.522;7.266;2023-03-09T08:59:09;46.33;;;23.47;;
1446;SDS011;717;51.522;7.266;2023-03-09T09:01:38;46.50;;;22.90;;
1446;SDS011;717;51.522;7.266;2023-03-09T09:04:06;41.97;;;21.47;;
1446;SDS011;717;51.522;7.266;2023-03-09T09:06:35;38.70;;;19.77;;
1446;SDS011;717;51.522;7.266;2023-03-09T09:09:04;41.00;;;21.27;;
1446;SDS011;717;51.522;7.266;2023-03-09T09:11:33;42.60;;;22.13;;
1446;SDS011;717;51.522;7.266;2023-03-09T09:14:02;48.00;;;23.87;;
1446;SDS011;717;51.522;7.266;2023-03-09T09:16:33;44.40;;;22.10;;
1446;SDS011;717;51.522;7.266;2023-03-09T09:19:02;45.30;;;22.97;;
1446;SDS011;717;51.522;7.266;2023-03-09T09:21:30;43.70;;;23.07;;
1446;SDS011;717;51.522;7.266;2023-03-09T09:23:59;39.03;;;21.47;;
1446;SDS011;717;51.522;7.266;2023-03-09T09:26:28;41.93;;;22.23;;
1446;SDS011;717;51.522;7.266;2023-03-09T09:28:57;37.93;;;20.27;;
1446;SDS011;717;51.522;7.266;2023-03-09T09:31:26;40.57;;;21.40;;
1446;SDS011;717;51.522;7.266;2023-03-09T09:33:58;32.20;;;19.30;;
1446;SDS011;717;51.522;7.266;2023-03-09T09:36:27;38.90;;;20.00;;
1446;SDS011;717;51.522;7.266;2023-03-09T09:38:56;37.70;;;19.53;;
1446;SDS011;717;51.522;7.266;2023-03-09T09:41:26;34.07;;;18.20;;
1446;SDS011;717;51.522;7.266;2023-03-09T09:43:59;33.83;;;19.17;;
1446;SDS011;717;51.522;7.266;2023-03-09T09:46:32;40.07;;;20.20;;
1446;SDS011;717;51.522;7.266;2023-03-09T09:49:08;40.47;;;20.73;;
1446;SDS011;717;51.522;7.266;2023-03-09T09:51:45;42.50;;;19.97;;
1446;SDS011;717;51.522;7.266;2023-03-09T09:54:26;38.93;;;21.03;;
1446;SDS011;717;51.522;7.266;2023-03-09T09:57:02;42.37;;;20.97;;
1446;SDS011;717;51.522;7.266;2023-03-09T09:59:37;40.10;;;21.20;;
1446;SDS011;717;51.522;7.266;2023-03-09T10:02:16;40.07;;;20.37;;
1446;SDS011;717;51.522;7.266;2023-03-09T10:05:00;44.30;;;21.40;;
1446;SDS011;717;51.522;7.266;2023-03-09T10:07:32;38.30;;;20.60;;
1446;SDS011;717;51.522;7.266;2023-03-09T10:10:06;40.87;;;21.70;;
1446;SDS011;717;51.522;7.266;2023-03-09T10:12:43;42.40;;;22.67;;
1446;SDS011;717;51.522;7.266;2023-03-09T10:15:14;42.80;;;21.53;;
1446;SDS011;717;51.522;7.266;2023-03-09T10:17:49;43.13;;;21.53;;
1446;SDS011;717;51.522;7.266;2023-03-09T10:20:25;44.00;;;21.47;;
1446;SDS011;717;51.522;7.266;2023-03-09T10:22:58;40.37;;;21.50;;
1446;SDS011;717;51.522;7.266;2023-03-09T10:25:26;42.83;;;21.83;;
1446;SDS011;717;51.522;7.266;2023-03-09T10:28:02;38.80;;;20.93;;
1446;SDS011;717;51.522;7.266;2023-03-09T10:30:38;36.97;;;19.67;;
1446;SDS011;717;51.522;7.266;2023-03-09T10:33:14;39.07;;;21.23;;
1446;SDS011;717;51.522;7.266;2023-03-09T10:35:48;41.97;;;22.17;;
1446;SDS011;717;51.522;7.266;2023-03-09T10:38:23;47.77;;;23.97;;
1446;SDS011;717;51.522;7.266;2023-03-09T10:40:53;43.73;;;23.13;;
1446;SDS011;717;51.522;7.266;2023-03-09T10:43:23;42.57;;;23.20;;
1446;SDS011;717;51.522;7.266;2023-03-09T10:45:54;41.43;;;23.20;;
1446;SDS011;717;51.522;7.266;2023-03-09T10:48:23;39.07;;;21.43;;
1446;SDS011;717;51.522;7.266;2023-03-09T10:51:00;40.60;;;22.10;;
1446;SDS011;717;51.522;7.266;2023-03-09T10:53:31;44.63;;;23.53;;
1446;SDS011;717;51.522;7.266;2023-03-09T10:56:05;40.67;;;21.80;;
1446;SDS011;717;51.522;7.266;2023-03-09T10:58:40;42.13;;;22.73;;
1446;SDS011;717;51.522;7.266;2023-03-09T11:01:19;42.20;;;23.47;;
1446;SDS011;717;51.522;7.266;2023-03-09T11:03:50;41.13;;;22.57;;
1446;SDS011;717;51.522;7.266;2023-03-09T11:06:29;41.23;;;22.27;;
1446;SDS011;717;51.522;7.266;2023-03-09T11:09:06;40.57;;;22.43;;
1446;SDS011;717;51.522;7.266;2023-03-09T11:11:41;43.37;;;23.07;;
1446;SDS011;717;51.522;7.266;2023-03-09T11:14:23;39.87;;;22.60;;
1446;SDS011;717;51.522;7.266;2023-03-09T11:16:54;41.87;;;23.13;;
1446;SDS011;717;51.522;7.266;2023-03-09T11:19:24;42.53;;;22.40;;
1446;SDS011;717;51.522;7.266;2023-03-09T11:22:00;38.87;;;21.67;;
1446;SDS011;717;51.522;7.266;2023-03-09T11:24:36;33.90;;;19.47;;
1446;SDS011;717;51.522;7.266;2023-03-09T11:27:08;39.10;;;20.60;;
1446;SDS011;717;51.522;7.266;2023-03-09T11:29:47;38.17;;;22.33;;
1446;SDS011;717;51.522;7.266;2023-03-09T11:32:19;38.23;;;20.60;;
1446;SDS011;717;51.522;7.266;2023-03-09T11:34:48;37.93;;;20.70;;
1446;SDS011;717;51.522;7.266;2023-03-09T11:37:21;34.43;;;19.33;;
1446;SDS011;717;51.522;7.266;2023-03-09T11:39:56;35.13;;;19.37;;
1446;SDS011;717;51.522;7.266;2023-03-09T11:42:31;35.90;;;20.13;;
1446;SDS011;717;51.522;7.266;2023-03-09T11:45:03;37.10;;;19.90;;
1446;SDS011;717;51.522;7.266;2023-03-09T11:47:34;31.80;;;18.30;;
1446;SDS011;717;51.522;7.266;2023-03-09T11:50:09;36.37;;;18.77;;
1446;SDS011;717;51.522;7.266;2023-03-09T11:52:46;34.67;;;19.63;;
1446;SDS011;717;51.522;7.266;2023-03-09T11:55:18;37.23;;;20.10;;
1446;SDS011;717;51.522;7.266;2023-03-09T11:57:56;37.20;;;20.67;;
1446;SDS011;717;51.522;7.266;2023-03-09T12:00:28;37.83;;;19.97;;
1446;SDS011;717;51.522;7.266;2023-03-09T12:03:00;34.53;;;19.83;;
1446;SDS011;717;51.522;7.266;2023-03-09T12:05:36;38.37;;;20.80;;
1446;SDS011;717;51.522;7.266;2023-03-09T12:08:12;37.73;;;20.83;;
1446;SDS011;717;51.522;7.266;2023-03-09T12:10:46;34.80;;;19.07;;
1446;SDS011;717;51.522;7.266;2023-03-09T12:13:17;36.83;;;21.03;;
1446;SDS011;717;51.522;7.266;2023-03-09T12:15:51;35.40;;;20.17;;
1446;SDS011;717;51.522;7.266;2023-03-09T12:18:26;40.37;;;20.77;;
1446;SDS011;717;51.522;7.266;2023-03-09T12:20:57;36.27;;;21.77;;
1446;SDS011;717;51.522;7.266;2023-03-09T12:26:30;37.17;;;21.27;;
1446;SDS011;717;51.522;7.266;2023-03-09T12:29:02;37.13;;;20.93;;
1446;SDS011;717;51.522;7.266;2023-03-09T12:31:43;37.23;;;21.57;;
1446;SDS011;717;51.522;7.266;2023-03-09T12:34:25;36.70;;;21.33;;
1446;SDS011;717;51.522;7.266;2023-03-09T12:40:20;41.23;;;22.80;;
1446;SDS011;717;51.522;7.266;2023-03-09T12:42:57;40.83;;;21.00;;
1446;SDS011;717;51.522;7.266;2023-03-09T12:49:12;36.60;;;20.27;;
1446;SDS011;717;51.522;7.266;2023-03-09T12:51:42;40.37;;;21.83;;
1446;SDS011;717;51.522;7.266;2023-03-09T12:54:21;39.47;;;21.67;;
1446;SDS011;717;51.522;7.266;2023-03-09T12:56:51;38.27;;;20.73;;
1446;SDS011;717;51.522;7.266;2023-03-09T12:59:22;36.17;;;20.77;;
1446;SDS011;717;51.522;7.266;2023-03-09T13:01:55;44.47;;;21.90;;
1446;SDS011;717;51.522;7.266;2023-03-09T13:04:26;36.77;;;20.20;;
1446;SDS011;717;51.522;7.266;2023-03-09T13:06:55;33.90;;;19.53;;
1446;SDS011;717;51.522;7.266;2023-03-09T13:09:29;36.87;;;20.80;;
1446;SDS011;717;51.522;7.266;2023-03-09T13:12:03;38.37;;;20.63;;
1446;SDS011;717;51.522;7.266;2023-03-09T13:18:10;37.93;;;18.83;;
1446;SDS011;717;51.522;7.266;2023-03-09T13:20:43;34.37;;;19.53;;
1446;SDS011;717;51.522;7.266;2023-03-09T13:23:12;32.63;;;19.13;;
1446;SDS011;717;51.522;7.266;2023-03-09T13:25:45;33.33;;;19.07;;
1446;SDS011;717;51.522;7.266;2023-03-09T13:28:21;32.23;;;18.63;;
1446;SDS011;717;51.522;7.266;2023-03-09T13:31:00;35.70;;;19.37;;
1446;SDS011;717;51.522;7.266;2023-03-09T13:33:34;37.90;;;21.10;;
1446;SDS011;717;51.522;7.266;2023-03-09T13:36:10;36.60;;;20.13;;
1446;SDS011;717;51.522;7.266;2023-03-09T13:38:43;39.33;;;21.57;;
1446;SDS011;717;51.522;7.266;2023-03-09T13:41:19;34.63;;;18.87;;
1446;SDS011;717;51.522;7.266;2023-03-09T13:43:49;35.10;;;18.90;;
1446;SDS011;717;51.522;7.266;2023-03-09T13:46:21;33.90;;;19.87;;
1446;SDS011;717;51.522;7.266;2023-03-09T13:48:53;36.20;;;20.63;;
1446;SDS011;717;51.522;7.266;2023-03-09T13:51:30;33.73;;;19.07;;
1446;SDS011;717;51.522;7.266;2023-03-09T13:54:16;34.40;;;20.10;;
1446;SDS011;717;51.522;7.266;2023-03-09T13:56:58;35.73;;;20.53;;
1446;SDS011;717;51.522;7.266;2023-03-09T13:59:30;38.97;;;21.77;;
1446;SDS011;717;51.522;7.266;2023-03-09T14:02:10;42.30;;;22.10;;
1446;SDS011;717;51.522;7.266;2023-03-09T14:04:46;40.50;;;21.73;;
1446;SDS011;717;51.522;7.266;2023-03-09T14:07:19;38.97;;;21.83;;
1446;SDS011;717;51.522;7.266;2023-03-09T14:09:50;37.87;;;21.77;;
1446;SDS011;717;51.522;7.266;2023-03-09T14:12:22;36.87;;;21.90;;
1446;SDS011;717;51.522;7.266;2023-03-09T14:14:54;35.70;;;20.57;;
1446;SDS011;717;51.522;7.266;2023-03-09T14:17:25;37.47;;;20.80;;
1446;SDS011;717;51.522;7.266;2023-03-09T14:19:54;41.07;;;22.17;;
1446;SDS011;717;51.522;7.266;2023-03-09T14:22:28;37.57;;;22.43;;
1446;SDS011;717;51.522;7.266;2023-03-09T14:24:59;37.43;;;21.23;;
1446;SDS011;717;51.522;7.266;2023-03-09T14:27:29;36.80;;;20.87;;
1446;SDS011;717;51.522;7.266;2023-03-09T14:33:00;39.13;;;19.90;;
1446;SDS011;717;51.522;7.266;2023-03-09T14:35:31;36.30;;;20.98;;
1446;SDS011;717;51.522;7.266;2023-03-09T14:38:14;34.40;;;19.60;;
1446;SDS011;717;51.522;7.266;2023-03-09T14:40:45;32.33;;;18.90;;
1446;SDS011;717;51.522;7.266;2023-03-09T14:43:20;28.40;;;17.07;;
1446;SDS011;717;51.522;7.266;2023-03-09T14:46:08;24.27;;;15.13;;
1446;SDS011;717;51.522;7.266;2023-03-09T14:48:37;26.33;;;15.83;;
1446;SDS011;717;51.522;7.266;2023-03-09T14:51:06;27.73;;;16.17;;
1446;SDS011;717;51.522;7.266;2023-03-09T14:53:55;24.87;;;15.30;;
1446;SDS011;717;51.522;7.266;2023-03-09T14:56:27;27.73;;;15.50;;
1446;SDS011;717;51.522;7.266;2023-03-09T14:58:57;26.50;;;14.60;;
1446;SDS011;717;51.522;7.266;2023-03-09T15:01:29;23.67;;;14.23;;
1446;SDS011;717;51.522;7.266;2023-03-09T15:03:58;23.00;;;14.97;;
1446;SDS011;717;51.522;7.266;2023-03-09T15:06:27;24.90;;;15.07;;
1446;SDS011;717;51.522;7.266;2023-03-09T15:08:58;25.70;;;14.80;;
1446;SDS011;717;51.522;7.266;2023-03-09T15:11:26;23.47;;;13.80;;
1446;SDS011;717;51.522;7.266;2023-03-09T15:13:55;23.07;;;13.87;;
1446;SDS011;717;51.522;7.266;2023-03-09T15:16:24;23.83;;;14.33;;
1446;SDS011;717;51.522;7.266;2023-03-09T15:18:53;21.37;;;14.00;;
1446;SDS011;717;51.522;7.266;2023-03-09T15:21:21;23.33;;;13.27;;
1446;SDS011;717;51.522;7.266;2023-03-09T15:23:50;21.40;;;13.07;;
1446;SDS011;717;51.522;7.266;2023-03-09T15:26:21;24.53;;;14.87;;
1446;SDS011;717;51.522;7.266;2023-03-09T15:28:50;20.77;;;13.53;;
1446;SDS011;717;51.522;7.266;2023-03-09T15:31:19;19.43;;;12.47;;
1446;SDS011;717;51.522;7.266;2023-03-09T15:33:47;21.97;;;12.83;;
1446;SDS011;717;51.522;7.266;2023-03-09T15:36:16;20.83;;;12.17;;
1446;SDS011;717;51.522;7.266;2023-03-09T15:38:46;20.67;;;12.20;;
1446;SDS011;717;51.522;7.266;2023-03-09T15:41:15;21.90;;;12.93;;
1446;SDS011;717;51.522;7.266;2023-03-09T15:43:46;23.23;;;13.43;;
1446;SDS011;717;51.522;7.266;2023-03-09T15:46:15;20.43;;;12.17;;